sensor_id;sensor_type;location;lat;lon;timestamp;P1;durP1;ratioP1;P2;durP2;ratioP2
21810;SDS011;11067;48.788;9.208;2023-07-08T00:01:13;10.27;;;5.40;;
21810;SDS011;11067;48.788;9.208;2023-07-08T00:03:39;9.10;;;5.63;;
21810;SDS011;11067;48.788;9.208;2023-07-08T00:06:09;9.48;;;5.47;;
21810;SDS011;11067;48.788;9.208;2023-07-08T00:08:36;13.68;;;5.90;;
21810;SDS011;11067;48.788;9.208;2023-07-08T00:11:04;11.15;;;5.53;;
21810;SDS011;11067;48.788;9.208;2023-07-08T00:13:33;11.75;;;5.85;;
21810;SDS011;11067;48.788;9.208;2023-07-08T00:15:59;11.52;;;6.35;;
21810;SDS011;11067;48.788;9.208;2023-07-08T00:18:25;13.80;;;6.37;;
21810;SDS011;11067;48.788;9.208;2023-07-08T00:20:51;10.75;;;6.00;;
21810;SDS011;11067;48.788;9.208;2023-07-08T00:23:17;10.27;;;5.82;;
21810;SDS011;11067;48.788;9.208;2023-07-08T00:25:47;10.32;;;5.15;;
21810;SDS011;11067;48.788;9.208;2023-07-08T00:28:16;9.38;;;5.90;;
21810;SDS011;11067;48.788;9.208;2023-07-08T00:30:43;12.65;;;6.10;;
21810;SDS011;11067;48.788;9.208;2023-07-08T00:33:09;11.52;;;6.00;;
21810;SDS011;11067;48.788;9.208;2023-07-08T00:35:39;11.82;;;5.60;;
21810;SDS011;11067;48.788;9.208;2023-07-08T00:38:14;10.13;;;6.20;;
21810;SDS011;11067;48.788;9.208;2023-07-08T00:40:52;12.45;;;6.15;;
21810;SDS011;11067;48.788;9.208;2023-07-08T00:43:23;11.50;;;6.15;;
21810;SDS011;11067;48.788;9.208;2023-07-08T00:45:51;12.85;;;5.75;;
21810;SDS011;11067;48.788;9.208;2023-07-08T00:48:32;13.40;;;6.35;;
21810;SDS011;11067;48.788;9.208;2023-07-08T00:51:02;11.48;;;6.57;;
21810;SDS011;11067;48.788;9.208;2023-07-08T00:53:32;11.00;;;6.18;;
21810;SDS011;11067;48.788;9.208;2023-07-08T00:58:41;15.90;;;6.75;;
21810;SDS011;11067;48.788;9.208;2023-07-08T01:01:08;11.10;;;5.87;;
21810;SDS011;11067;48.788;9.208;2023-07-08T01:03:56;9.55;;;6.15;;
21810;SDS011;11067;48.788;9.208;2023-07-08T01:06:21;10.60;;;6.20;;
21810;SDS011;11067;48.788;9.208;2023-07-08T01:08:48;14.25;;;5.88;;
21810;SDS011;11067;48.788;9.208;2023-07-08T01:11:19;14.40;;;6.25;;
21810;SDS011;11067;48.788;9.208;2023-07-08T01:13:46;9.48;;;5.97;;
21810;SDS011;11067;48.788;9.208;2023-07-08T01:16:14;12.73;;;5.97;;
21810;SDS011;11067;48.788;9.208;2023-07-08T01:18:40;13.65;;;5.78;;
21810;SDS011;11067;48.788;9.208;2023-07-08T01:21:28;12.35;;;6.55;;
21810;SDS011;11067;48.788;9.208;2023-07-08T01:23:52;10.77;;;6.30;;
21810;SDS011;11067;48.788;9.208;2023-07-08T01:26:20;11.95;;;6.55;;
21810;SDS011;11067;48.788;9.208;2023-07-08T01:28:48;13.00;;;6.05;;
21810;SDS011;11067;48.788;9.208;2023-07-08T01:31:14;11.52;;;6.57;;
21810;SDS011;11067;48.788;9.208;2023-07-08T01:33:40;10.40;;;6.07;;
21810;SDS011;11067;48.788;9.208;2023-07-08T01:36:08;15.67;;;6.87;;
21810;SDS011;11067;48.788;9.208;2023-07-08T01:38:34;10.35;;;5.68;;
21810;SDS011;11067;48.788;9.208;2023-07-08T01:41:00;11.10;;;6.30;;
21810;SDS011;11067;48.788;9.208;2023-07-08T01:43:26;9.20;;;5.83;;
21810;SDS011;11067;48.788;9.208;2023-07-08T01:45:52;12.33;;;6.73;;
21810;SDS011;11067;48.788;9.208;2023-07-08T01:48:20;11.88;;;5.93;;
21810;SDS011;11067;48.788;9.208;2023-07-08T01:50:50;13.32;;;6.30;;
21810;SDS011;11067;48.788;9.208;2023-07-08T01:53:19;9.85;;;6.00;;
21810;SDS011;11067;48.788;9.208;2023-07-08T01:55:46;12.35;;;6.47;;
21810;SDS011;11067;48.788;9.208;2023-07-08T01:58:12;13.70;;;7.15;;
21810;SDS011;11067;48.788;9.208;2023-07-08T02:00:38;12.48;;;6.95;;
21810;SDS011;11067;48.788;9.208;2023-07-08T02:03:04;14.83;;;7.07;;
21810;SDS011;11067;48.788;9.208;2023-07-08T02:05:30;13.43;;;6.63;;
21810;SDS011;11067;48.788;9.208;2023-07-08T02:07:56;11.48;;;6.38;;
21810;SDS011;11067;48.788;9.208;2023-07-08T02:10:21;12.10;;;6.07;;
21810;SDS011;11067;48.788;9.208;2023-07-08T02:12:48;10.90;;;6.40;;
21810;SDS011;11067;48.788;9.208;2023-07-08T02:15:13;11.73;;;6.07;;
21810;SDS011;11067;48.788;9.208;2023-07-08T02:17:39;11.80;;;6.15;;
21810;SDS011;11067;48.788;9.208;2023-07-08T02:20:06;12.50;;;6.38;;
21810;SDS011;11067;48.788;9.208;2023-07-08T02:22:33;12.33;;;6.37;;
21810;SDS011;11067;48.788;9.208;2023-07-08T02:24:59;13.27;;;6.60;;
21810;SDS011;11067;48.788;9.208;2023-07-08T02:27:25;13.45;;;6.43;;
21810;SDS011;11067;48.788;9.208;2023-07-08T02:29:51;12.00;;;6.32;;
21810;SDS011;11067;48.788;9.208;2023-07-08T02:32:17;10.25;;;6.15;;
21810;SDS011;11067;48.788;9.208;2023-07-08T02:34:43;10.13;;;6.13;;
21810;SDS011;11067;48.788;9.208;2023-07-08T02:37:09;11.13;;;6.80;;
21810;SDS011;11067;48.788;9.208;2023-07-08T02:39:35;10.83;;;6.47;;
21810;SDS011;11067;48.788;9.208;2023-07-08T02:42:01;11.45;;;5.95;;
21810;SDS011;11067;48.788;9.208;2023-07-08T02:44:27;10.52;;;5.90;;
21810;SDS011;11067;48.788;9.208;2023-07-08T02:46:53;10.50;;;6.35;;
21810;SDS011;11067;48.788;9.208;2023-07-08T02:49:19;14.43;;;6.53;;
21810;SDS011;11067;48.788;9.208;2023-07-08T02:51:44;12.50;;;6.18;;
21810;SDS011;11067;48.788;9.208;2023-07-08T02:54:10;11.60;;;6.50;;
21810;SDS011;11067;48.788;9.208;2023-07-08T02:56:36;12.47;;;6.70;;
21810;SDS011;11067;48.788;9.208;2023-07-08T02:59:02;11.95;;;6.32;;
21810;SDS011;11067;48.788;9.208;2023-07-08T03:01:28;10.85;;;6.60;;
21810;SDS011;11067;48.788;9.208;2023-07-08T03:03:55;11.83;;;6.87;;
21810;SDS011;11067;48.788;9.208;2023-07-08T03:06:24;11.82;;;6.78;;
21810;SDS011;11067;48.788;9.208;2023-07-08T03:08:50;13.05;;;6.65;;
21810;SDS011;11067;48.788;9.208;2023-07-08T03:11:16;9.95;;;6.13;;
21810;SDS011;11067;48.788;9.208;2023-07-08T03:13:42;12.05;;;6.65;;
21810;SDS011;11067;48.788;9.208;2023-07-08T03:16:08;10.65;;;6.40;;
21810;SDS011;11067;48.788;9.208;2023-07-08T03:18:37;10.77;;;6.18;;
21810;SDS011;11067;48.788;9.208;2023-07-08T03:21:11;10.60;;;5.95;;
21810;SDS011;11067;48.788;9.208;2023-07-08T03:23:37;9.50;;;6.00;;
21810;SDS011;11067;48.788;9.208;2023-07-08T03:26:03;11.98;;;5.88;;
21810;SDS011;11067;48.788;9.208;2023-07-08T03:28:29;9.57;;;5.32;;
21810;SDS011;11067;48.788;9.208;2023-07-08T03:30:56;9.98;;;5.72;;
21810;SDS011;11067;48.788;9.208;2023-07-08T03:33:22;10.27;;;6.47;;
21810;SDS011;11067;48.788;9.208;2023-07-08T03:35:48;12.45;;;6.30;;
21810;SDS011;11067;48.788;9.208;2023-07-08T03:38:14;10.23;;;6.17;;
21810;SDS011;11067;48.788;9.208;2023-07-08T03:40:40;8.35;;;5.35;;
21810;SDS011;11067;48.788;9.208;2023-07-08T03:43:06;8.90;;;5.77;;
21810;SDS011;11067;48.788;9.208;2023-07-08T03:45:32;10.40;;;5.80;;
21810;SDS011;11067;48.788;9.208;2023-07-08T03:47:58;10.65;;;6.20;;
21810;SDS011;11067;48.788;9.208;2023-07-08T03:50:25;11.52;;;6.10;;
21810;SDS011;11067;48.788;9.208;2023-07-08T03:52:51;13.57;;;5.90;;
21810;SDS011;11067;48.788;9.208;2023-07-08T03:55:18;10.73;;;6.00;;
21810;SDS011;11067;48.788;9.208;2023-07-08T03:57:44;10.63;;;5.97;;
21810;SDS011;11067;48.788;9.208;2023-07-08T04:00:10;10.37;;;6.10;;
21810;SDS011;11067;48.788;9.208;2023-07-08T04:02:40;13.52;;;6.10;;
21810;SDS011;11067;48.788;9.208;2023-07-08T04:05:06;11.73;;;5.97;;
21810;SDS011;11067;48.788;9.208;2023-07-08T04:07:33;12.52;;;6.18;;
21810;SDS011;11067;48.788;9.208;2023-07-08T04:09:59;11.95;;;5.90;;
21810;SDS011;11067;48.788;9.208;2023-07-08T04:12:25;11.00;;;6.17;;
21810;SDS011;11067;48.788;9.208;2023-07-08T04:14:51;11.70;;;6.13;;
21810;SDS011;11067;48.788;9.208;2023-07-08T04:17:17;8.82;;;5.78;;
21810;SDS011;11067;48.788;9.208;2023-07-08T04:19:44;12.05;;;6.43;;
21810;SDS011;11067;48.788;9.208;2023-07-08T04:22:10;13.10;;;6.40;;
21810;SDS011;11067;48.788;9.208;2023-07-08T04:24:36;11.10;;;5.93;;
21810;SDS011;11067;48.788;9.208;2023-07-08T04:27:02;10.52;;;6.22;;
21810;SDS011;11067;48.788;9.208;2023-07-08T04:29:28;10.52;;;5.80;;
21810;SDS011;11067;48.788;9.208;2023-07-08T04:31:54;12.75;;;6.20;;
21810;SDS011;11067;48.788;9.208;2023-07-08T04:34:20;8.75;;;5.53;;
21810;SDS011;11067;48.788;9.208;2023-07-08T04:36:46;12.02;;;6.07;;
21810;SDS011;11067;48.788;9.208;2023-07-08T04:39:12;9.05;;;5.72;;
21810;SDS011;11067;48.788;9.208;2023-07-08T04:41:39;11.48;;;5.88;;
21810;SDS011;11067;48.788;9.208;2023-07-08T04:44:08;11.02;;;6.03;;
21810;SDS011;11067;48.788;9.208;2023-07-08T04:46:39;11.73;;;5.50;;
21810;SDS011;11067;48.788;9.208;2023-07-08T04:49:06;9.57;;;4.90;;
21810;SDS011;11067;48.788;9.208;2023-07-08T04:51:34;9.93;;;5.65;;
21810;SDS011;11067;48.788;9.208;2023-07-08T04:54:00;13.50;;;5.78;;
21810;SDS011;11067;48.788;9.208;2023-07-08T04:56:34;9.35;;;5.70;;
21810;SDS011;11067;48.788;9.208;2023-07-08T04:59:00;11.10;;;5.57;;
21810;SDS011;11067;48.788;9.208;2023-07-08T05:01:27;9.20;;;5.70;;
21810;SDS011;11067;48.788;9.208;2023-07-08T05:03:52;7.10;;;4.88;;
21810;SDS011;11067;48.788;9.208;2023-07-08T05:06:18;9.93;;;5.43;;
21810;SDS011;11067;48.788;9.208;2023-07-08T05:08:44;13.02;;;4.93;;
21810;SDS011;11067;48.788;9.208;2023-07-08T05:11:10;7.23;;;4.20;;
21810;SDS011;11067;48.788;9.208;2023-07-08T05:13:36;8.35;;;5.03;;
21810;SDS011;11067;48.788;9.208;2023-07-08T05:16:02;11.48;;;4.85;;
21810;SDS011;11067;48.788;9.208;2023-07-08T05:18:28;8.40;;;5.32;;
21810;SDS011;11067;48.788;9.208;2023-07-08T05:20:55;7.27;;;4.83;;
21810;SDS011;11067;48.788;9.208;2023-07-08T05:23:21;7.65;;;4.55;;
21810;SDS011;11067;48.788;9.208;2023-07-08T05:25:47;9.25;;;5.40;;
21810;SDS011;11067;48.788;9.208;2023-07-08T05:28:13;10.15;;;5.10;;
21810;SDS011;11067;48.788;9.208;2023-07-08T05:30:40;9.40;;;5.10;;
21810;SDS011;11067;48.788;9.208;2023-07-08T05:33:07;8.55;;;4.97;;
21810;SDS011;11067;48.788;9.208;2023-07-08T05:35:33;9.65;;;4.93;;
21810;SDS011;11067;48.788;9.208;2023-07-08T05:37:59;10.63;;;5.40;;
21810;SDS011;11067;48.788;9.208;2023-07-08T05:40:25;9.32;;;5.35;;
21810;SDS011;11067;48.788;9.208;2023-07-08T05:42:50;10.98;;;5.18;;
21810;SDS011;11067;48.788;9.208;2023-07-08T05:45:16;8.50;;;4.50;;
21810;SDS011;11067;48.788;9.208;2023-07-08T05:47:42;7.50;;;5.00;;
21810;SDS011;11067;48.788;9.208;2023-07-08T05:50:08;8.27;;;4.50;;
21810;SDS011;11067;48.788;9.208;2023-07-08T05:52:34;9.75;;;5.30;;
21810;SDS011;11067;48.788;9.208;2023-07-08T05:55:00;8.90;;;4.97;;
21810;SDS011;11067;48.788;9.208;2023-07-08T05:57:26;9.77;;;5.00;;
21810;SDS011;11067;48.788;9.208;2023-07-08T05:59:52;12.07;;;5.65;;
21810;SDS011;11067;48.788;9.208;2023-07-08T06:02:18;8.93;;;5.13;;
21810;SDS011;11067;48.788;9.208;2023-07-08T06:04:46;9.23;;;5.35;;
21810;SDS011;11067;48.788;9.208;2023-07-08T06:07:12;8.50;;;5.00;;
21810;SDS011;11067;48.788;9.208;2023-07-08T06:09:38;8.90;;;4.95;;
21810;SDS011;11067;48.788;9.208;2023-07-08T06:12:04;8.23;;;4.60;;
21810;SDS011;11067;48.788;9.208;2023-07-08T06:14:30;8.23;;;4.80;;
21810;SDS011;11067;48.788;9.208;2023-07-08T06:16:57;10.32;;;5.32;;
21810;SDS011;11067;48.788;9.208;2023-07-08T06:19:24;9.23;;;5.50;;
21810;SDS011;11067;48.788;9.208;2023-07-08T06:21:49;12.90;;;5.35;;
21810;SDS011;11067;48.788;9.208;2023-07-08T06:24:15;9.27;;;4.90;;
21810;SDS011;11067;48.788;9.208;2023-07-08T06:26:41;11.20;;;5.72;;
21810;SDS011;11067;48.788;9.208;2023-07-08T06:29:06;9.55;;;5.28;;
21810;SDS011;11067;48.788;9.208;2023-07-08T06:31:32;9.03;;;5.23;;
21810;SDS011;11067;48.788;9.208;2023-07-08T06:33:58;11.07;;;5.90;;
21810;SDS011;11067;48.788;9.208;2023-07-08T06:36:24;11.02;;;4.95;;
21810;SDS011;11067;48.788;9.208;2023-07-08T06:38:50;8.13;;;5.00;;
21810;SDS011;11067;48.788;9.208;2023-07-08T06:41:15;12.90;;;5.10;;
21810;SDS011;11067;48.788;9.208;2023-07-08T06:43:41;12.95;;;5.15;;
21810;SDS011;11067;48.788;9.208;2023-07-08T06:46:06;10.33;;;5.07;;
21810;SDS011;11067;48.788;9.208;2023-07-08T06:48:32;7.60;;;4.97;;
21810;SDS011;11067;48.788;9.208;2023-07-08T06:50:57;9.90;;;5.07;;
21810;SDS011;11067;48.788;9.208;2023-07-08T06:53:23;7.93;;;4.80;;
21810;SDS011;11067;48.788;9.208;2023-07-08T06:55:49;10.07;;;4.60;;
21810;SDS011;11067;48.788;9.208;2023-07-08T06:58:15;8.07;;;4.20;;
21810;SDS011;11067;48.788;9.208;2023-07-08T07:00:41;8.38;;;3.83;;
21810;SDS011;11067;48.788;9.208;2023-07-08T07:03:08;8.70;;;4.07;;
21810;SDS011;11067;48.788;9.208;2023-07-08T07:05:34;8.07;;;3.75;;
21810;SDS011;11067;48.788;9.208;2023-07-08T07:08:00;8.07;;;4.10;;
21810;SDS011;11067;48.788;9.208;2023-07-08T07:10:25;7.50;;;4.07;;
21810;SDS011;11067;48.788;9.208;2023-07-08T07:12:51;6.03;;;3.47;;
21810;SDS011;11067;48.788;9.208;2023-07-08T07:15:16;8.93;;;3.90;;
21810;SDS011;11067;48.788;9.208;2023-07-08T07:17:42;6.70;;;3.83;;
21810;SDS011;11067;48.788;9.208;2023-07-08T07:20:08;7.80;;;4.10;;
21810;SDS011;11067;48.788;9.208;2023-07-08T07:22:33;8.20;;;3.95;;
21810;SDS011;11067;48.788;9.208;2023-07-08T07:24:59;6.00;;;3.40;;
21810;SDS011;11067;48.788;9.208;2023-07-08T07:27:25;5.55;;;3.42;;
21810;SDS011;11067;48.788;9.208;2023-07-08T07:29:51;7.47;;;3.27;;
21810;SDS011;11067;48.788;9.208;2023-07-08T07:32:17;5.45;;;3.50;;
21810;SDS011;11067;48.788;9.208;2023-07-08T07:34:47;8.82;;;3.47;;
21810;SDS011;11067;48.788;9.208;2023-07-08T07:37:14;9.93;;;4.10;;
21810;SDS011;11067;48.788;9.208;2023-07-08T07:39:41;8.25;;;3.38;;
21810;SDS011;11067;48.788;9.208;2023-07-08T07:42:06;6.68;;;3.80;;
21810;SDS011;11067;48.788;9.208;2023-07-08T07:44:33;6.45;;;3.45;;
21810;SDS011;11067;48.788;9.208;2023-07-08T07:46:59;10.13;;;3.47;;
21810;SDS011;11067;48.788;9.208;2023-07-08T07:49:24;6.75;;;3.53;;
21810;SDS011;11067;48.788;9.208;2023-07-08T07:51:50;4.55;;;3.22;;
21810;SDS011;11067;48.788;9.208;2023-07-08T07:54:16;6.70;;;3.50;;
21810;SDS011;11067;48.788;9.208;2023-07-08T07:56:42;7.15;;;3.55;;
21810;SDS011;11067;48.788;9.208;2023-07-08T07:59:09;5.72;;;2.95;;
21810;SDS011;11067;48.788;9.208;2023-07-08T08:01:35;5.68;;;3.15;;
21810;SDS011;11067;48.788;9.208;2023-07-08T08:04:01;5.63;;;3.33;;
21810;SDS011;11067;48.788;9.208;2023-07-08T08:06:26;5.97;;;2.97;;
21810;SDS011;11067;48.788;9.208;2023-07-08T08:08:52;7.60;;;3.15;;
21810;SDS011;11067;48.788;9.208;2023-07-08T08:11:18;6.75;;;2.90;;
21810;SDS011;11067;48.788;9.208;2023-07-08T08:13:45;6.40;;;3.10;;
21810;SDS011;11067;48.788;9.208;2023-07-08T08:16:10;4.78;;;2.83;;
21810;SDS011;11067;48.788;9.208;2023-07-08T08:18:36;4.95;;;3.08;;
21810;SDS011;11067;48.788;9.208;2023-07-08T08:21:02;6.33;;;3.20;;
21810;SDS011;11067;48.788;9.208;2023-07-08T08:23:28;6.20;;;2.90;;
21810;SDS011;11067;48.788;9.208;2023-07-08T08:25:54;7.38;;;3.25;;
21810;SDS011;11067;48.788;9.208;2023-07-08T08:28:20;5.97;;;3.03;;
21810;SDS011;11067;48.788;9.208;2023-07-08T08:30:49;6.07;;;2.85;;
21810;SDS011;11067;48.788;9.208;2023-07-08T08:33:15;4.40;;;2.88;;
21810;SDS011;11067;48.788;9.208;2023-07-08T08:35:42;4.80;;;2.70;;
21810;SDS011;11067;48.788;9.208;2023-07-08T08:38:08;5.17;;;2.43;;
21810;SDS011;11067;48.788;9.208;2023-07-08T08:40:34;5.45;;;2.03;;
21810;SDS011;11067;48.788;9.208;2023-07-08T08:43:02;4.82;;;2.53;;
21810;SDS011;11067;48.788;9.208;2023-07-08T08:45:29;4.70;;;2.13;;
21810;SDS011;11067;48.788;9.208;2023-07-08T08:47:58;4.28;;;2.47;;
21810;SDS011;11067;48.788;9.208;2023-07-08T08:52:51;5.03;;;2.60;;
21810;SDS011;11067;48.788;9.208;2023-07-08T08:55:20;4.25;;;2.20;;
21810;SDS011;11067;48.788;9.208;2023-07-08T09:00:27;4.80;;;2.25;;
21810;SDS011;11067;48.788;9.208;2023-07-08T09:02:59;7.43;;;2.30;;
21810;SDS011;11067;48.788;9.208;2023-07-08T09:05:27;3.88;;;2.25;;
21810;SDS011;11067;48.788;9.208;2023-07-08T09:08:27;4.65;;;2.10;;
21810;SDS011;11067;48.788;9.208;2023-07-08T09:10:46;7.40;;;2.50;;
21810;SDS011;11067;48.788;9.208;2023-07-08T09:13:16;4.32;;;2.08;;
21810;SDS011;11067;48.788;9.208;2023-07-08T09:15:44;5.72;;;2.45;;
21810;SDS011;11067;48.788;9.208;2023-07-08T09:18:13;4.35;;;2.60;;
21810;SDS011;11067;48.788;9.208;2023-07-08T09:20:40;3.67;;;2.30;;
21810;SDS011;11067;48.788;9.208;2023-07-08T09:26:12;4.00;;;2.10;;
21810;SDS011;11067;48.788;9.208;2023-07-08T09:28:42;3.30;;;1.90;;
21810;SDS011;11067;48.788;9.208;2023-07-08T09:31:11;9.35;;;2.90;;
21810;SDS011;11067;48.788;9.208;2023-07-08T09:33:42;5.88;;;2.00;;
21810;SDS011;11067;48.788;9.208;2023-07-08T09:36:18;5.10;;;2.30;;
21810;SDS011;11067;48.788;9.208;2023-07-08T09:38:46;4.53;;;2.20;;
21810;SDS011;11067;48.788;9.208;2023-07-08T09:41:13;3.92;;;2.00;;
21810;SDS011;11067;48.788;9.208;2023-07-08T09:43:39;4.55;;;2.25;;
21810;SDS011;11067;48.788;9.208;2023-07-08T09:46:05;4.68;;;2.30;;
21810;SDS011;11067;48.788;9.208;2023-07-08T09:48:37;4.28;;;2.10;;
21810;SDS011;11067;48.788;9.208;2023-07-08T09:51:03;5.87;;;2.73;;
21810;SDS011;11067;48.788;9.208;2023-07-08T09:53:29;5.68;;;2.63;;
21810;SDS011;11067;48.788;9.208;2023-07-08T09:55:58;4.10;;;2.30;;
21810;SDS011;11067;48.788;9.208;2023-07-08T09:58:27;6.35;;;3.10;;
21810;SDS011;11067;48.788;9.208;2023-07-08T10:00:55;4.85;;;2.38;;
21810;SDS011;11067;48.788;9.208;2023-07-08T10:03:23;4.45;;;2.60;;
21810;SDS011;11067;48.788;9.208;2023-07-08T10:05:51;4.90;;;2.20;;
21810;SDS011;11067;48.788;9.208;2023-07-08T10:08:21;4.10;;;2.20;;
21810;SDS011;11067;48.788;9.208;2023-07-08T10:10:48;3.63;;;1.90;;
21810;SDS011;11067;48.788;9.208;2023-07-08T10:13:28;5.60;;;2.00;;
21810;SDS011;11067;48.788;9.208;2023-07-08T10:16:06;3.80;;;2.07;;
21810;SDS011;11067;48.788;9.208;2023-07-08T10:18:36;3.63;;;2.33;;
21810;SDS011;11067;48.788;9.208;2023-07-08T10:21:06;3.92;;;2.22;;
21810;SDS011;11067;48.788;9.208;2023-07-08T10:23:37;4.88;;;2.97;;
21810;SDS011;11067;48.788;9.208;2023-07-08T10:26:26;5.13;;;3.07;;
21810;SDS011;11067;48.788;9.208;2023-07-08T10:39:21;5.95;;;3.35;;
21810;SDS011;11067;48.788;9.208;2023-07-08T10:42:01;4.45;;;3.20;;
21810;SDS011;11067;48.788;9.208;2023-07-08T10:49:59;8.20;;;2.80;;
21810;SDS011;11067;48.788;9.208;2023-07-08T10:52:51;7.78;;;2.95;;
21810;SDS011;11067;48.788;9.208;2023-07-08T10:55:27;5.50;;;2.90;;
21810;SDS011;11067;48.788;9.208;2023-07-08T11:05:41;3.28;;;2.30;;
21810;SDS011;11067;48.788;9.208;2023-07-08T11:08:19;4.78;;;2.22;;
21810;SDS011;11067;48.788;9.208;2023-07-08T11:10:50;3.15;;;2.30;;
21810;SDS011;11067;48.788;9.208;2023-07-08T11:13:18;4.07;;;2.05;;
21810;SDS011;11067;48.788;9.208;2023-07-08T11:16:04;3.92;;;2.05;;
21810;SDS011;11067;48.788;9.208;2023-07-08T11:21:18;3.58;;;2.13;;
21810;SDS011;11067;48.788;9.208;2023-07-08T11:23:48;5.75;;;2.38;;
21810;SDS011;11067;48.788;9.208;2023-07-08T11:26:18;4.45;;;2.20;;
21810;SDS011;11067;48.788;9.208;2023-07-08T11:28:46;4.82;;;2.45;;
21810;SDS011;11067;48.788;9.208;2023-07-08T11:31:12;8.02;;;2.42;;
21810;SDS011;11067;48.788;9.208;2023-07-08T11:33:41;4.43;;;2.08;;
21810;SDS011;11067;48.788;9.208;2023-07-08T11:36:08;4.87;;;2.43;;
21810;SDS011;11067;48.788;9.208;2023-07-08T11:38:35;4.18;;;2.20;;
21810;SDS011;11067;48.788;9.208;2023-07-08T11:41:04;5.47;;;2.75;;
21810;SDS011;11067;48.788;9.208;2023-07-08T11:46:22;3.78;;;2.10;;
21810;SDS011;11067;48.788;9.208;2023-07-08T11:48:51;3.83;;;2.50;;
21810;SDS011;11067;48.788;9.208;2023-07-08T11:51:24;4.90;;;2.30;;
21810;SDS011;11067;48.788;9.208;2023-07-08T11:53:59;6.63;;;2.40;;
21810;SDS011;11067;48.788;9.208;2023-07-08T11:56:26;3.42;;;2.13;;
21810;SDS011;11067;48.788;9.208;2023-07-08T11:59:03;2.45;;;1.70;;
21810;SDS011;11067;48.788;9.208;2023-07-08T12:02:13;3.20;;;2.13;;
21810;SDS011;11067;48.788;9.208;2023-07-08T12:04:31;4.43;;;2.15;;
21810;SDS011;11067;48.788;9.208;2023-07-08T12:07:17;3.72;;;1.85;;
21810;SDS011;11067;48.788;9.208;2023-07-08T12:12:24;5.20;;;2.35;;
21810;SDS011;11067;48.788;9.208;2023-07-08T12:14:53;6.60;;;1.95;;
21810;SDS011;11067;48.788;9.208;2023-07-08T12:17:19;2.97;;;2.00;;
21810;SDS011;11067;48.788;9.208;2023-07-08T12:19:45;4.50;;;2.00;;
21810;SDS011;11067;48.788;9.208;2023-07-08T12:22:12;4.03;;;1.83;;
21810;SDS011;11067;48.788;9.208;2023-07-08T12:24:39;3.75;;;1.77;;
21810;SDS011;11067;48.788;9.208;2023-07-08T12:27:05;3.23;;;1.90;;
21810;SDS011;11067;48.788;9.208;2023-07-08T12:29:33;4.72;;;2.33;;
21810;SDS011;11067;48.788;9.208;2023-07-08T12:32:00;3.63;;;2.10;;
21810;SDS011;11067;48.788;9.208;2023-07-08T12:34:26;3.90;;;2.10;;
21810;SDS011;11067;48.788;9.208;2023-07-08T12:36:52;5.93;;;2.40;;
21810;SDS011;11067;48.788;9.208;2023-07-08T12:39:18;5.43;;;2.00;;
21810;SDS011;11067;48.788;9.208;2023-07-08T12:41:45;4.18;;;1.77;;
21810;SDS011;11067;48.788;9.208;2023-07-08T12:44:14;5.17;;;2.13;;
21810;SDS011;11067;48.788;9.208;2023-07-08T12:46:40;4.85;;;2.08;;
21810;SDS011;11067;48.788;9.208;2023-07-08T12:49:07;6.72;;;1.90;;
21810;SDS011;11067;48.788;9.208;2023-07-08T12:51:34;2.42;;;1.80;;
21810;SDS011;11067;48.788;9.208;2023-07-08T12:53:59;2.63;;;1.93;;
21810;SDS011;11067;48.788;9.208;2023-07-08T12:56:25;3.75;;;1.90;;
21810;SDS011;11067;48.788;9.208;2023-07-08T12:58:52;3.60;;;1.73;;
21810;SDS011;11067;48.788;9.208;2023-07-08T13:01:19;7.20;;;2.03;;
21810;SDS011;11067;48.788;9.208;2023-07-08T13:03:47;3.25;;;1.90;;
21810;SDS011;11067;48.788;9.208;2023-07-08T13:06:15;4.32;;;2.08;;
21810;SDS011;11067;48.788;9.208;2023-07-08T13:08:41;3.00;;;1.70;;
21810;SDS011;11067;48.788;9.208;2023-07-08T13:11:08;4.63;;;1.90;;
21810;SDS011;11067;48.788;9.208;2023-07-08T13:13:34;4.45;;;2.63;;
21810;SDS011;11067;48.788;9.208;2023-07-08T13:16:01;3.05;;;1.70;;
21810;SDS011;11067;48.788;9.208;2023-07-08T13:18:34;3.63;;;2.10;;
21810;SDS011;11067;48.788;9.208;2023-07-08T13:21:00;3.42;;;2.17;;
21810;SDS011;11067;48.788;9.208;2023-07-08T13:23:27;3.95;;;1.80;;
21810;SDS011;11067;48.788;9.208;2023-07-08T13:25:54;3.10;;;1.83;;
21810;SDS011;11067;48.788;9.208;2023-07-08T13:28:24;3.93;;;2.20;;
21810;SDS011;11067;48.788;9.208;2023-07-08T13:30:57;6.57;;;1.98;;
21810;SDS011;11067;48.788;9.208;2023-07-08T13:33:24;4.00;;;2.30;;
21810;SDS011;11067;48.788;9.208;2023-07-08T13:35:54;3.10;;;1.70;;
21810;SDS011;11067;48.788;9.208;2023-07-08T13:38:21;5.37;;;1.97;;
21810;SDS011;11067;48.788;9.208;2023-07-08T13:40:48;3.40;;;1.70;;
21810;SDS011;11067;48.788;9.208;2023-07-08T13:43:15;4.70;;;1.77;;
21810;SDS011;11067;48.788;9.208;2023-07-08T13:45:45;2.73;;;1.53;;
21810;SDS011;11067;48.788;9.208;2023-07-08T13:48:18;4.78;;;1.50;;
21810;SDS011;11067;48.788;9.208;2023-07-08T13:50:49;5.55;;;2.00;;
21810;SDS011;11067;48.788;9.208;2023-07-08T13:53:20;2.42;;;1.70;;
21810;SDS011;11067;48.788;9.208;2023-07-08T13:55:46;4.75;;;1.80;;
21810;SDS011;11067;48.788;9.208;2023-07-08T13:58:17;4.50;;;1.58;;
21810;SDS011;11067;48.788;9.208;2023-07-08T14:00:43;3.35;;;1.60;;
21810;SDS011;11067;48.788;9.208;2023-07-08T14:03:12;3.30;;;1.63;;
21810;SDS011;11067;48.788;9.208;2023-07-08T14:05:39;2.97;;;1.70;;
21810;SDS011;11067;48.788;9.208;2023-07-08T14:08:15;4.85;;;1.92;;
21810;SDS011;11067;48.788;9.208;2023-07-08T14:10:44;6.50;;;2.00;;
21810;SDS011;11067;48.788;9.208;2023-07-08T14:13:10;2.58;;;1.50;;
21810;SDS011;11067;48.788;9.208;2023-07-08T14:15:37;3.08;;;1.75;;
21810;SDS011;11067;48.788;9.208;2023-07-08T14:18:03;3.87;;;1.80;;
21810;SDS011;11067;48.788;9.208;2023-07-08T14:20:30;6.70;;;1.90;;
21810;SDS011;11067;48.788;9.208;2023-07-08T14:22:57;4.93;;;1.90;;
21810;SDS011;11067;48.788;9.208;2023-07-08T14:25:23;3.17;;;1.98;;
21810;SDS011;11067;48.788;9.208;2023-07-08T14:27:49;5.10;;;2.00;;
21810;SDS011;11067;48.788;9.208;2023-07-08T14:30:15;3.25;;;2.00;;
21810;SDS011;11067;48.788;9.208;2023-07-08T14:32:41;4.43;;;2.20;;
21810;SDS011;11067;48.788;9.208;2023-07-08T14:37:42;5.88;;;1.83;;
21810;SDS011;11067;48.788;9.208;2023-07-08T14:40:27;3.38;;;1.95;;
21810;SDS011;11067;48.788;9.208;2023-07-08T14:42:55;5.85;;;2.10;;
21810;SDS011;11067;48.788;9.208;2023-07-08T14:45:22;4.30;;;2.10;;
21810;SDS011;11067;48.788;9.208;2023-07-08T14:47:48;4.72;;;2.05;;
21810;SDS011;11067;48.788;9.208;2023-07-08T14:50:14;5.57;;;1.92;;
21810;SDS011;11067;48.788;9.208;2023-07-08T14:52:40;5.28;;;1.90;;
21810;SDS011;11067;48.788;9.208;2023-07-08T14:55:07;5.35;;;2.20;;
21810;SDS011;11067;48.788;9.208;2023-07-08T14:57:39;3.88;;;2.13;;
21810;SDS011;11067;48.788;9.208;2023-07-08T15:00:10;4.70;;;2.20;;
21810;SDS011;11067;48.788;9.208;2023-07-08T15:02:36;2.97;;;2.03;;
21810;SDS011;11067;48.788;9.208;2023-07-08T15:05:07;3.40;;;2.00;;
21810;SDS011;11067;48.788;9.208;2023-07-08T15:07:34;3.10;;;1.87;;
21810;SDS011;11067;48.788;9.208;2023-07-08T15:10:00;3.53;;;1.80;;
21810;SDS011;11067;48.788;9.208;2023-07-08T15:12:26;2.80;;;1.90;;
21810;SDS011;11067;48.788;9.208;2023-07-08T15:14:52;4.32;;;2.05;;
21810;SDS011;11067;48.788;9.208;2023-07-08T15:17:18;4.10;;;1.77;;
21810;SDS011;11067;48.788;9.208;2023-07-08T15:19:44;3.47;;;1.80;;
21810;SDS011;11067;48.788;9.208;2023-07-08T15:22:10;3.65;;;2.08;;
21810;SDS011;11067;48.788;9.208;2023-07-08T15:24:36;4.57;;;1.87;;
21810;SDS011;11067;48.788;9.208;2023-07-08T15:27:03;4.93;;;2.00;;
21810;SDS011;11067;48.788;9.208;2023-07-08T15:29:29;2.90;;;1.88;;
21810;SDS011;11067;48.788;9.208;2023-07-08T15:31:55;2.38;;;1.73;;